Time;durP1;ratioP1;P1;durP2;ratioP2;P2;SDS_P1;SDS_P2;PMS_P1;PMS_P2;Temp;Humidity;BMP_temperature;BMP_pressure;BME280_temperature;BME280_humidity;BME280_pressure;Samples;Min_cycle;Max_cycle;Signal;HPM_P1;HPM_P2
2023/08/28 00:00:02;;;;;;;4.63;2.53;;;;;;;25.13;53.79;98578.03;4806031;29;20182;-85
2023/08/28 00:02:29;;;;;;;5.60;2.50;;;;;;;25.08;53.27;98569.72;4805954;29;20203;-85
2023/08/28 00:04:54;;;;;;;5.60;2.40;;;;;;;25.02;53.76;98565.94;4805854;29;20191;-85
2023/08/28 00:07:21;;;;;;;6.40;2.33;;;;;;;25.03;53.20;98567.59;4805928;29;20211;-85
2023/08/28 00:09:48;;;;;;;4.77;2.70;;;;;;;25.07;53.19;98557.34;4805833;29;20186;-85
2023/08/28 00:12:15;;;;;;;7.47;2.50;;;;;;;25.12;53.18;98554.09;4805932;29;20181;-85
2023/08/28 00:14:41;;;;;;;5.40;2.63;;;;;;;25.09;53.47;98559.81;4805884;29;20186;-85
2023/08/28 00:17:08;;;;;;;4.33;2.13;;;;;;;25.08;54.08;98553.63;4805906;29;20174;-84
2023/08/28 00:19:35;;;;;;;7.70;2.27;;;;;;;25.04;54.32;98557.69;4806392;29;20179;-85
2023/08/28 00:22:00;;;;;;;5.50;2.20;;;;;;;24.98;54.30;98548.53;4805688;29;20235;-85
2023/08/28 00:24:27;;;;;;;7.30;3.00;;;;;;;24.96;54.03;98550.59;4806218;29;20210;-85
2023/08/28 00:26:54;;;;;;;8.33;2.60;;;;;;;24.97;53.95;98552.22;4805645;29;20190;-85
2023/08/28 00:29:20;;;;;;;10.17;3.10;;;;;;;24.97;53.60;98549.56;4806040;29;20337;-85
2023/08/28 00:31:47;;;;;;;7.00;3.07;;;;;;;24.93;53.37;98548.28;4805936;29;20178;-85
2023/08/28 00:34:13;;;;;;;5.97;2.80;;;;;;;24.89;53.57;98544.31;4805624;29;20194;-85
2023/08/28 00:36:39;;;;;;;7.13;2.90;;;;;;;24.80;53.85;98540.06;4805653;29;20642;-85
2023/08/28 00:39:04;;;;;;;5.57;3.07;;;;;;;24.79;53.12;98545.59;4789636;29;20296;-85
2023/08/28 00:41:31;;;;;;;4.57;2.50;;;;;;;24.75;53.09;98542.41;4805585;29;20183;-84
2023/08/28 00:43:57;;;;;;;8.20;3.13;;;;;;;24.74;53.14;98532.69;4805502;29;20234;-84
2023/08/28 00:46:24;;;;;;;4.30;2.37;;;;;;;24.66;53.83;98527.44;4805498;29;20607;-85
2023/08/28 00:48:51;;;;;;;7.57;3.33;;;;;;;24.55;54.54;98527.91;4805708;29;20544;-85
2023/08/28 00:51:18;;;;;;;3.73;2.30;;;;;;;24.40;55.24;98530.56;4805609;29;20197;-85
2023/08/28 00:53:44;;;;;;;5.80;2.50;;;;;;;24.34;54.74;98523.25;4805663;29;20201;-84
2023/08/28 00:56:11;;;;;;;4.57;2.10;;;;;;;24.36;54.40;98531.13;4805521;29;20621;-85
2023/08/28 00:58:39;;;;;;;7.70;3.50;;;;;;;24.24;55.02;98522.66;4805459;29;20661;-85
2023/08/28 01:01:04;;;;;;;11.03;3.10;;;;;;;24.17;54.25;98520.91;4805502;29;20186;-84
2023/08/28 01:03:30;;;;;;;6.30;2.73;;;;;;;24.15;54.28;98520.25;4808176;29;20250;-84
2023/08/28 01:06:17;;;;;;;5.63;2.67;;;;;;;24.07;54.66;98510.44;4793735;29;20183;-85
2023/08/28 01:09:06;;;;;;;6.43;2.90;;;;;;;23.98;55.42;98516.84;4809421;29;20174;-85
2023/08/28 01:12:20;;;;;;;5.20;2.57;;;;;;;24.01;55.63;98513.81;4808791;29;20657;-84
2023/08/28 01:15:14;;;;;;;6.27;2.40;;;;;;;24.06;55.31;98518.63;4788355;29;20564;-84
2023/08/28 01:17:42;;;;;;;6.03;2.53;;;;;;;24.08;56.04;98527.34;4809049;29;20167;-84
2023/08/28 01:20:15;;;;;;;6.00;2.67;;;;;;;24.05;56.21;98530.38;4808653;29;20269;-84
2023/08/28 01:23:11;;;;;;;6.60;2.80;;;;;;;24.02;55.92;98522.69;4808569;29;20213;-85
2023/08/28 01:25:39;;;;;;;6.13;2.90;;;;;;;23.94;56.06;98518.22;4809074;29;20249;-85
2023/08/28 01:28:06;;;;;;;9.83;2.87;;;;;;;23.96;55.80;98526.06;4793301;29;20194;-85
2023/08/28 01:30:31;;;;;;;7.00;2.80;;;;;;;23.92;55.94;98533.66;4792708;29;20247;-85
2023/08/28 01:32:58;;;;;;;4.20;2.30;;;;;;;23.93;56.07;98529.94;4792376;29;20182;-84
2023/08/28 01:35:31;;;;;;;4.23;2.33;;;;;;;23.90;55.84;98532.16;4792545;29;20533;-84
2023/08/28 01:38:28;;;;;;;5.03;2.50;;;;;;;23.83;55.64;98535.56;4808867;29;20218;-84
2023/08/28 01:41:12;;;;;;;4.73;2.33;;;;;;;23.78;55.67;98551.31;4802643;29;20710;-84
2023/08/28 01:43:45;;;;;;;4.63;2.83;;;;;;;23.78;55.10;98543.28;4775031;30;20234;-84
2023/08/28 01:46:12;;;;;;;6.57;2.27;;;;;;;23.73;55.31;98544.81;4790630;29;20242;-84
2023/08/28 01:48:53;;;;;;;5.50;2.37;;;;;;;23.67;55.31;98538.34;4790119;30;20195;-85
2023/08/28 01:51:20;;;;;;;5.53;2.63;;;;;;;23.57;54.69;98529.72;4792513;29;20211;-84
2023/08/28 01:53:48;;;;;;;4.27;2.73;;;;;;;23.53;55.53;98530.25;4806986;29;20194;-85
2023/08/28 01:56:22;;;;;;;4.77;2.40;;;;;;;23.47;55.61;98518.41;4808049;29;20277;-85
2023/08/28 01:58:58;;;;;;;7.17;2.47;;;;;;;23.38;56.12;98524.81;4808114;29;20224;-84
2023/08/28 02:01:26;;;;;;;8.47;2.87;;;;;;;23.40;56.41;98514.75;4807242;29;20230;-84
2023/08/28 02:03:52;;;;;;;4.97;2.80;;;;;;;23.44;56.38;98513.41;4808004;29;20282;-85
2023/08/28 02:06:17;;;;;;;5.60;2.80;;;;;;;23.45;56.96;98514.25;4807253;29;20182;-84
2023/08/28 02:08:43;;;;;;;4.80;3.03;;;;;;;23.45;57.15;98511.56;4808118;29;20186;-84
2023/08/28 02:11:09;;;;;;;6.83;3.03;;;;;;;23.39;57.75;98502.41;4806852;29;20182;-84
2023/08/28 02:13:34;;;;;;;5.17;2.80;;;;;;;23.39;57.70;98499.75;4806469;29;20179;-84
2023/08/28 02:16:01;;;;;;;5.87;3.07;;;;;;;23.37;57.42;98501.75;4807087;29;20273;-84
2023/08/28 02:18:27;;;;;;;7.73;3.37;;;;;;;23.40;57.35;98496.03;4807005;29;20212;-85
2023/08/28 02:20:52;;;;;;;7.40;3.20;;;;;;;23.44;56.45;98502.72;4791671;29;20278;-84
2023/08/28 02:23:18;;;;;;;6.37;2.57;;;;;;;23.39;56.44;98504.25;4806649;29;20210;-84
2023/08/28 02:25:47;;;;;;;5.37;3.00;;;;;;;23.37;55.84;98506.28;4807532;29;20665;-84
2023/08/28 02:28:18;;;;;;;6.43;2.90;;;;;;;23.33;55.71;98512.94;4807633;29;20219;-84
2023/08/28 02:30:45;;;;;;;4.60;2.80;;;;;;;23.23;56.57;98513.16;4791549;29;20283;-84
2023/08/28 02:33:15;;;;;;;6.47;2.53;;;;;;;23.09;56.52;98508.56;4807928;29;20265;-84
2023/08/28 02:35:41;;;;;;;7.10;3.37;;;;;;;23.02;56.65;98502.25;4807360;29;20185;-85
2023/08/28 02:38:10;;;;;;;5.00;2.60;;;;;;;22.99;57.70;98508.78;4792115;29;20189;-84
2023/08/28 02:40:38;;;;;;;8.43;3.13;;;;;;;22.99;57.47;98505.25;4807745;29;20641;-84
2023/08/28 02:43:06;;;;;;;5.63;2.40;;;;;;;22.99;58.07;98502.59;4806200;29;20297;-84
2023/08/28 02:45:35;;;;;;;5.73;2.70;;;;;;;22.98;57.44;98508.97;4807142;29;20237;-84
2023/08/28 02:48:03;;;;;;;5.33;3.00;;;;;;;23.02;57.32;98507.59;4806918;29;20195;-85
2023/08/28 02:50:34;;;;;;;4.53;2.63;;;;;;;23.04;57.18;98501.06;4807353;29;20183;-85
2023/08/28 02:53:03;;;;;;;8.30;3.30;;;;;;;23.06;56.77;98506.25;4806103;29;20181;-85
2023/08/28 02:55:30;;;;;;;4.70;2.27;;;;;;;22.98;56.92;98495.59;4791076;29;20190;-85
2023/08/28 02:57:57;;;;;;;12.37;3.17;;;;;;;22.91;57.21;98490.09;4806255;29;20186;-85
2023/08/28 03:00:24;;;;;;;4.80;2.87;;;;;;;22.92;57.17;98496.28;4806865;29;20282;-84
2023/08/28 03:02:50;;;;;;;5.73;3.60;;;;;;;22.89;57.37;98496.63;4790849;29;20206;-84
2023/08/28 03:05:16;;;;;;;7.20;3.87;;;;;;;22.92;57.19;98499.78;4791397;29;20197;-85
2023/08/28 03:07:41;;;;;;;6.27;3.20;;;;;;;22.92;56.59;98499.78;4807072;29;20255;-85
2023/08/28 03:10:08;;;;;;;5.77;2.93;;;;;;;22.86;56.45;98507.66;4806787;29;20183;-85
2023/08/28 03:12:34;;;;;;;6.67;3.00;;;;;;;22.79;56.83;98509.38;4790579;29;20660;-85
2023/08/28 03:15:01;;;;;;;6.60;2.80;;;;;;;22.73;56.98;98507.38;4806946;29;20182;-85
2023/08/28 03:17:27;;;;;;;4.47;2.67;;;;;;;22.66;57.93;98511.75;4806604;29;20226;-85
2023/08/28 03:19:54;;;;;;;9.43;3.30;;;;;;;22.58;58.16;98513.41;4790706;29;20205;-85
2023/08/28 03:22:20;;;;;;;5.27;3.10;;;;;;;22.59;58.03;98511.56;4806348;29;20539;-85
2023/08/28 03:24:47;;;;;;;6.90;2.90;;;;;;;22.62;58.10;98511.22;4790412;29;20183;-85
2023/08/28 03:27:12;;;;;;;5.53;2.83;;;;;;;22.67;58.18;98514.22;4806374;29;20183;-84
2023/08/28 03:29:38;;;;;;;5.13;2.93;;;;;;;22.71;58.35;98522.75;4806397;29;20209;-85
2023/08/28 03:32:04;;;;;;;6.07;2.87;;;;;;;22.73;58.22;98529.59;4806369;29;20193;-85
2023/08/28 03:34:31;;;;;;;6.83;3.13;;;;;;;22.73;58.69;98526.06;4806331;29;20646;-84
2023/08/28 03:36:57;;;;;;;8.13;3.37;;;;;;;22.67;58.91;98532.13;4806294;29;20183;-85
2023/08/28 03:39:22;;;;;;;6.10;3.00;;;;;;;22.68;58.86;98526.59;4806776;29;20190;-85
2023/08/28 03:41:47;;;;;;;6.33;3.13;;;;;;;22.69;58.92;98533.63;4807043;29;20242;-85
2023/08/28 03:44:13;;;;;;;6.13;3.10;;;;;;;22.68;58.84;98531.94;4806604;29;20267;-85
2023/08/28 03:46:38;;;;;;;6.80;3.33;;;;;;;22.68;59.89;98531.09;4790355;29;20238;-85
2023/08/28 03:49:04;;;;;;;5.43;3.23;;;;;;;22.63;60.06;98524.44;4805767;29;20190;-85
2023/08/28 03:51:30;;;;;;;7.07;3.40;;;;;;;22.59;60.14;98523.06;4789852;29;20190;-85
2023/08/28 03:53:57;;;;;;;6.23;2.87;;;;;;;22.65;59.39;98524.25;4805113;29;20229;-85
2023/08/28 03:56:24;;;;;;;7.07;3.83;;;;;;;22.72;58.97;98533.25;4799341;29;20557;-84
2023/08/28 03:58:49;;;;;;;6.87;3.27;;;;;;;22.71;59.35;98528.94;4786255;30;20328;-85
2023/08/28 04:01:16;;;;;;;5.27;3.07;;;;;;;22.74;59.32;98522.41;4786284;30;20606;-85
2023/08/28 04:03:42;;;;;;;7.33;3.80;;;;;;;22.82;58.81;98522.38;4786060;30;20203;-85
2023/08/28 04:06:09;;;;;;;6.37;3.63;;;;;;;22.85;58.36;98522.03;4785870;30;20661;-85
2023/08/28 04:08:36;;;;;;;4.50;3.10;;;;;;;22.82;58.43;98522.38;4802356;29;20186;-85
2023/08/28 04:11:03;;;;;;;6.07;3.10;;;;;;;22.80;58.67;98516.38;4789351;29;20637;-85
2023/08/28 04:13:28;;;;;;;6.10;3.73;;;;;;;22.80;58.45;98521.72;4807492;29;20641;-85
2023/08/28 04:15:56;;;;;;;10.67;3.97;;;;;;;22.79;58.11;98517.38;4790189;29;20189;-85
2023/08/28 04:18:23;;;;;;;6.10;3.07;;;;;;;22.76;57.83;98513.22;4805545;29;20182;-85
2023/08/28 04:20:50;;;;;;;4.93;3.00;;;;;;;22.76;57.92;98512.38;4805736;29;20243;-85
2023/08/28 04:23:17;;;;;;;8.43;2.97;;;;;;;22.80;57.93;98517.19;4805658;29;20618;-85
2023/08/28 04:25:44;;;;;;;9.60;3.30;;;;;;;22.80;58.40;98513.72;4805334;29;20190;-85
2023/08/28 04:28:12;;;;;;;5.53;3.40;;;;;;;22.84;58.27;98520.38;4805754;29;20186;-85
2023/08/28 04:30:39;;;;;;;8.83;2.83;;;;;;;22.91;57.92;98516.81;4789459;29;20175;-85
2023/08/28 04:33:06;;;;;;;7.00;3.83;;;;;;;23.00;57.47;98512.28;4796762;29;20304;-85
2023/08/28 04:35:33;;;;;;;6.47;3.53;;;;;;;23.14;56.58;98519.56;4805586;29;20218;-85
2023/08/28 04:37:58;;;;;;;6.63;3.40;;;;;;;23.15;56.89;98522.06;4807162;29;20254;-85
2023/08/28 04:40:28;;;;;;;7.40;3.37;;;;;;;23.19;57.50;98535.94;4818910;29;20189;-85
2023/08/28 04:42:55;;;;;;;7.23;3.83;;;;;;;23.31;57.69;98537.19;4822827;29;20281;-85
2023/08/28 04:45:20;;;;;;;7.03;3.40;;;;;;;23.43;58.93;98538.47;4808995;29;20182;-85
2023/08/28 04:47:47;;;;;;;5.50;3.20;;;;;;;23.55;59.24;98539.78;4809566;29;20179;-85
2023/08/28 04:50:13;;;;;;;7.07;3.53;;;;;;;23.67;59.10;98546.38;4809296;29;20193;-85
2023/08/28 04:52:38;;;;;;;12.40;3.90;;;;;;;23.79;58.44;98547.59;4809111;29;20179;-85
2023/08/28 04:55:04;;;;;;;5.17;3.27;;;;;;;23.88;58.32;98537.69;4809086;29;20247;-85
2023/08/28 04:57:32;;;;;;;6.13;3.37;;;;;;;23.97;58.11;98541.13;4808925;29;20203;-85
2023/08/28 04:59:59;;;;;;;7.03;2.93;;;;;;;24.07;57.82;98542.56;4808994;29;20178;-85
2023/08/28 05:02:26;;;;;;;8.93;3.37;;;;;;;24.25;57.17;98547.63;4808871;29;20248;-85
2023/08/28 05:04:53;;;;;;;7.73;3.50;;;;;;;24.40;56.97;98546.63;4809006;29;20189;-85
2023/08/28 05:07:19;;;;;;;9.53;3.80;;;;;;;24.41;56.37;98545.63;4808708;29;20190;-85
2023/08/28 05:09:46;;;;;;;9.23;4.10;;;;;;;24.54;56.21;98536.94;4793153;29;20186;-85
2023/08/28 05:12:13;;;;;;;8.57;4.00;;;;;;;24.60;56.51;98538.91;4808776;29;20606;-85
2023/08/28 05:14:40;;;;;;;10.30;4.80;;;;;;;24.61;56.57;98535.19;4808975;29;20179;-86
2023/08/28 05:17:06;;;;;;;6.07;3.57;;;;;;;24.67;56.63;98539.81;4808602;29;20198;-86
2023/08/28 05:19:32;;;;;;;10.03;4.17;;;;;;;24.90;56.27;98537.91;4808661;29;20175;-86
2023/08/28 05:21:57;;;;;;;8.20;4.40;;;;;;;25.07;55.93;98527.84;4808849;29;20174;-86
2023/08/28 05:24:24;;;;;;;6.93;3.83;;;;;;;25.15;56.14;98533.09;4792804;29;20217;-85
2023/08/28 05:26:51;;;;;;;6.03;3.70;;;;;;;25.32;55.85;98544.44;4808780;29;20670;-85
2023/08/28 05:29:16;;;;;;;8.13;3.73;;;;;;;25.50;55.62;98542.19;4808512;29;20189;-86
2023/08/28 05:31:41;;;;;;;9.20;3.90;;;;;;;25.50;55.41;98550.25;4808687;29;20536;-86
2023/08/28 05:34:08;;;;;;;11.10;3.37;;;;;;;25.69;55.46;98541.59;4808409;29;20545;-85
2023/08/28 05:36:34;;;;;;;8.13;3.73;;;;;;;25.98;55.23;98529.88;4808831;29;20196;-86
2023/08/28 05:39:00;;;;;;;6.07;3.33;;;;;;;26.22;54.30;98529.50;4808076;29;20628;-86
2023/08/28 05:41:27;;;;;;;9.90;4.70;;;;;;;26.41;53.92;98533.38;4808364;29;20183;-86
2023/08/28 05:43:54;;;;;;;9.03;4.33;;;;;;;26.50;53.81;98542.94;4807043;29;20209;-86
2023/08/28 05:46:19;;;;;;;7.43;3.90;;;;;;;26.62;53.32;98539.53;4808327;29;20226;-86
2023/08/28 05:48:46;;;;;;;12.83;3.83;;;;;;;26.72;53.38;98536.50;4807960;29;20194;-86
2023/08/28 05:51:12;;;;;;;6.00;3.67;;;;;;;26.85;53.17;98539.28;4792218;29;20186;-86
2023/08/28 05:53:39;;;;;;;13.47;4.60;;;;;;;26.96;53.75;98545.97;4808114;29;20179;-86
2023/08/28 05:56:04;;;;;;;7.80;4.23;;;;;;;27.14;54.02;98538.19;4807926;29;20247;-86
2023/08/28 05:58:31;;;;;;;10.53;4.23;;;;;;;27.31;52.85;98531.44;4792037;29;20604;-86
2023/08/28 06:00:58;;;;;;;10.13;4.40;;;;;;;27.42;53.58;98530.88;4808238;29;20186;-86
2023/08/28 06:03:24;;;;;;;9.10;4.72;;;;;;;27.65;52.62;98541.28;4808355;29;20292;-87
2023/08/28 06:05:51;;;;;;;8.48;4.65;;;;;;;27.87;52.15;98532.03;4808417;29;20236;-86
2023/08/28 06:08:17;;;;;;;9.93;5.88;;;;;;;28.15;50.68;98534.56;4807698;29;20190;-86
2023/08/28 06:10:44;;;;;;;11.80;5.15;;;;;;;28.23;50.66;98535.19;4807751;29;20244;-86
2023/08/28 06:13:11;;;;;;;11.35;4.95;;;;;;;28.46;50.87;98535.59;4791829;29;20179;-86
2023/08/28 06:15:38;;;;;;;12.27;4.53;;;;;;;28.78;50.86;98543.88;4807913;29;20206;-86
2023/08/28 06:18:05;;;;;;;12.40;5.30;;;;;;;29.16;50.01;98542.97;4808194;29;20238;-86
2023/08/28 06:20:33;;;;;;;9.48;4.88;;;;;;;29.56;49.42;98551.72;4807635;29;20205;-86
2023/08/28 06:22:59;;;;;;;8.68;4.85;;;;;;;29.98;49.09;98546.75;4807365;29;20198;-86
2023/08/28 06:25:26;;;;;;;12.95;4.78;;;;;;;30.38;48.32;98535.44;4807344;29;20190;-86
2023/08/28 06:27:52;;;;;;;14.63;5.70;;;;;;;30.88;46.74;98544.31;4791518;29;20520;-85
2023/08/28 06:30:19;;;;;;;7.30;4.70;;;;;;;31.33;45.86;98541.31;4807678;29;20185;-86
2023/08/28 06:32:44;;;;;;;11.45;4.93;;;;;;;31.68;45.01;98558.63;4807940;29;20178;-86
2023/08/28 06:35:11;;;;;;;7.95;4.95;;;;;;;32.01;44.10;98560.88;4807611;29;20178;-86
2023/08/28 06:37:38;;;;;;;9.38;4.72;;;;;;;32.36;43.69;98552.81;4807424;29;20187;-86
2023/08/28 06:40:08;;;;;;;8.82;4.40;;;;;;;32.69;42.98;98558.53;4807331;29;20187;-86
2023/08/28 06:42:36;;;;;;;16.20;4.47;;;;;;;32.93;42.84;98549.31;4807445;29;20163;-87
2023/08/28 06:45:03;;;;;;;9.02;4.53;;;;;;;33.05;42.69;98552.03;4807416;29;20194;-87
2023/08/28 06:47:30;;;;;;;13.63;4.72;;;;;;;33.28;42.48;98550.09;4807085;29;20194;-87
2023/08/28 06:49:57;;;;;;;9.65;4.15;;;;;;;33.30;41.56;98556.13;4807034;29;20642;-88
2023/08/28 06:52:23;;;;;;;7.25;4.18;;;;;;;33.53;42.12;98555.22;4807087;29;20705;-87
2023/08/28 06:54:50;;;;;;;9.18;3.97;;;;;;;33.69;42.06;98559.94;4806988;29;20198;-87
2023/08/28 06:57:17;;;;;;;16.48;5.05;;;;;;;33.95;41.13;98550.34;4806882;29;20194;-87
2023/08/28 06:59:44;;;;;;;7.18;4.13;;;;;;;34.23;40.23;98552.22;4790651;29;20650;-87
2023/08/28 07:02:10;;;;;;;8.75;4.55;;;;;;;34.45;40.26;98540.34;4807381;29;20174;-87
2023/08/28 07:04:35;;;;;;;8.93;3.85;;;;;;;34.77;40.32;98529.72;4806813;29;20221;-87
2023/08/28 07:07:00;;;;;;;9.07;4.35;;;;;;;35.06;39.62;98517.59;4806820;29;20179;-87
2023/08/28 07:09:26;;;;;;;7.57;3.95;;;;;;;35.39;39.07;98524.00;4806778;29;20194;-87
2023/08/28 07:11:51;;;;;;;12.23;3.50;;;;;;;35.62;37.75;98518.28;4806733;29;20187;-86
2023/08/28 07:14:17;;;;;;;4.72;3.05;;;;;;;35.68;37.58;98523.56;4807223;29;20186;-89
2023/08/28 07:16:42;;;;;;;7.65;3.35;;;;;;;35.51;38.11;98524.69;4790661;29;20197;-88
2023/08/28 07:19:08;;;;;;;7.35;3.35;;;;;;;35.63;38.50;98523.50;4790684;29;20265;-87
2023/08/28 07:21:34;;;;;;;5.35;2.83;;;;;;;35.69;37.78;98522.47;4806441;29;20182;-87
2023/08/28 07:24:01;;;;;;;7.20;2.58;;;;;;;35.63;36.17;98520.78;4806454;29;20270;-88
2023/08/28 07:26:28;;;;;;;7.88;3.25;;;;;;;35.41;38.01;98519.09;4806484;29;20179;-87
2023/08/28 07:28:54;;;;;;;4.78;2.60;;;;;;;35.48;37.24;98523.31;4806481;29;20188;-88
2023/08/28 07:31:22;;;;;;;4.07;2.65;;;;;;;35.50;36.94;98518.41;4806948;29;20262;-89
2023/08/28 07:33:49;;;;;;;5.93;2.28;;;;;;;35.27;36.02;98518.69;4806663;29;20175;-90
2023/08/28 07:36:21;;;;;;;4.80;2.53;;;;;;;35.15;36.42;98523.44;4806304;29;20194;-88
2023/08/28 07:38:48;;;;;;;3.60;2.10;;;;;;;35.18;35.66;98525.66;4806346;29;20158;-88
2023/08/28 07:41:16;;;;;;;4.03;2.38;;;;;;;35.33;36.87;98527.72;4805528;29;20193;-89
2023/08/28 07:43:44;;;;;;;6.70;2.50;;;;;;;35.46;36.68;98524.63;4790390;29;20587;-89
2023/08/28 07:46:11;;;;;;;6.55;1.85;;;;;;;35.34;36.64;98530.22;4806438;29;20231;-88
2023/08/28 07:48:37;;;;;;;4.72;1.77;;;;;;;35.53;36.18;98537.03;4806162;29;20186;-87
2023/08/28 07:51:04;;;;;;;6.15;2.72;;;;;;;35.81;35.81;98540.59;4806774;29;20182;-88
2023/08/28 07:53:31;;;;;;;7.13;2.60;;;;;;;35.87;35.84;98525.91;4806034;29;20190;-87
2023/08/28 07:55:59;;;;;;;4.68;2.58;;;;;;;35.87;35.91;98518.56;4790223;29;20238;-87
2023/08/28 07:58:24;;;;;;;7.95;3.17;;;;;;;35.59;35.96;98516.91;4790241;29;20190;-89
2023/08/28 08:00:50;;;;;;;5.28;2.47;;;;;;;35.55;35.14;98512.22;4806164;29;20606;-87
2023/08/28 08:03:15;;;;;;;4.78;2.45;;;;;;;35.56;36.33;98511.94;4806048;29;20236;-86
2023/08/28 08:05:41;;;;;;;6.00;2.63;;;;;;;35.73;34.58;98509.97;4790359;29;20186;-87
2023/08/28 08:08:07;;;;;;;6.55;2.40;;;;;;;35.88;34.56;98519.41;4806338;29;20182;-88
2023/08/28 08:10:36;;;;;;;6.05;3.38;;;;;;;35.82;35.95;98509.50;4805116;29;20664;-87
2023/08/28 08:13:03;;;;;;;9.27;2.53;;;;;;;35.76;35.37;98523.09;4805179;29;20182;-87
2023/08/28 08:15:31;;;;;;;7.15;2.65;;;;;;;35.83;34.84;98522.03;4805852;29;20194;-86
2023/08/28 08:17:58;;;;;;;5.63;2.50;;;;;;;35.92;34.88;98524.06;4806467;29;20179;-87
2023/08/28 08:20:25;;;;;;;4.60;2.55;;;;;;;36.04;33.94;98523.91;4806190;29;20703;-87
2023/08/28 08:22:52;;;;;;;5.70;2.60;;;;;;;35.42;35.71;98520.75;4805783;29;20206;-87
2023/08/28 08:25:17;;;;;;;3.83;2.10;;;;;;;35.25;35.87;98511.84;4805734;29;20269;-87
2023/08/28 08:49:56;;;;;;;3.35;2.15;;;;;;;36.03;35.81;98495.84;4607377;31;20293;-92
2023/08/28 08:52:49;;;;;;;6.95;2.22;;;;;;;36.32;34.82;98479.97;4606593;31;20244;-90
2023/08/28 09:05:52;;;;;;;6.30;2.25;;;;;;;36.13;33.41;98475.97;4580319;31;20202;-90
2023/08/28 09:16:07;;;;;;;7.72;3.08;;;;;;;36.76;32.91;98461.41;4518605;31;20260;-90
2023/08/28 09:19:06;;;;;;;4.40;2.58;;;;;;;36.90;32.59;98452.47;4556783;31;20207;-90
2023/08/28 09:22:09;;;;;;;;;;;;;;;;;;;;;
2023/08/28 09:24:49;;;;;;;3.45;1.85;;;;;;;36.70;32.06;98449.63;4750471;30;20212;-89
2023/08/28 09:35:00;;;;;;;4.38;2.58;;;;;;;37.04;30.49;98449.25;4743511;30;20231;-89
2023/08/28 09:45:05;;;;;;;4.13;1.92;;;;;;;37.38;30.03;98447.72;4801355;29;20387;-92
2023/08/28 09:47:31;;;;;;;5.15;2.40;;;;;;;37.71;27.44;98447.25;4807292;29;20178;-90
2023/08/28 09:49:57;;;;;;;4.72;2.53;;;;;;;37.80;28.43;98444.81;4808537;29;20175;-88
2023/08/28 09:57:17;;;;;;;4.03;2.50;;;;;;;37.21;29.51;98431.59;4735857;30;20211;-92
2023/08/28 09:59:52;;;;;;;4.53;2.22;;;;;;;37.34;28.78;98442.00;4668706;30;20202;-91
2023/08/28 10:02:24;;;;;;;5.03;2.50;;;;;;;37.41;30.64;98431.66;4697829;30;20193;-91
2023/08/28 10:04:52;;;;;;;6.00;2.22;;;;;;;37.75;28.66;98423.75;4699306;30;20233;-88
2023/08/28 10:07:24;;;;;;;4.57;2.13;;;;;;;37.82;30.02;98421.56;4720663;30;20224;-90
2023/08/28 10:09:51;;;;;;;6.20;2.05;;;;;;;38.00;28.30;98412.81;4727793;30;20194;-90
2023/08/28 10:12:21;;;;;;;5.05;2.55;;;;;;;38.21;28.62;98407.34;4714078;30;20218;-90
2023/08/28 10:14:49;;;;;;;4.50;2.25;;;;;;;38.16;27.54;98399.94;4773764;30;20584;-91
2023/08/28 10:17:18;;;;;;;4.43;2.28;;;;;;;38.26;28.56;98402.69;4787523;29;20195;-89
2023/08/28 10:19:57;;;;;;;4.68;2.17;;;;;;;38.28;28.88;98402.41;4773951;30;20649;-90
2023/08/28 10:22:25;;;;;;;5.90;2.30;;;;;;;38.30;28.08;98400.19;4792198;29;20190;-91
2023/08/28 10:24:53;;;;;;;5.10;2.13;;;;;;;38.26;28.34;98396.38;4807668;29;20218;-89
2023/08/28 10:27:20;;;;;;;7.07;2.63;;;;;;;37.95;29.21;98393.69;4806849;29;20193;-89
2023/08/28 10:29:47;;;;;;;4.05;2.30;;;;;;;38.29;27.37;98387.63;4807675;29;20269;-90
2023/08/28 10:32:14;;;;;;;4.03;2.13;;;;;;;38.43;27.33;98383.22;4807473;29;20214;-89
2023/08/28 10:34:42;;;;;;;3.05;2.08;;;;;;;38.37;28.24;98384.31;4807238;29;20179;-89
2023/08/28 10:37:13;;;;;;;5.75;2.25;;;;;;;38.40;27.81;98378.28;4807473;29;20187;-90
2023/08/28 10:39:42;;;;;;;4.28;2.22;;;;;;;38.52;28.21;98371.44;4806439;29;20190;-90
2023/08/28 10:42:11;;;;;;;3.55;2.00;;;;;;;38.79;27.82;98370.22;4807408;29;20241;-90
2023/08/28 10:44:39;;;;;;;5.35;1.80;;;;;;;38.50;27.38;98373.59;4807211;29;20221;-89
2023/08/28 10:47:06;;;;;;;7.88;2.20;;;;;;;38.02;28.28;98369.59;4807382;29;20646;-90
2023/08/28 10:49:36;;;;;;;5.13;1.90;;;;;;;38.38;26.73;98366.81;4806077;29;20549;-90
2023/08/28 10:52:06;;;;;;;3.83;1.85;;;;;;;38.79;26.18;98364.75;4806424;29;20186;-89
2023/08/28 10:54:37;;;;;;;2.72;1.92;;;;;;;38.95;26.69;98358.91;4806846;29;20183;-90
2023/08/28 10:57:11;;;;;;;3.10;2.10;;;;;;;39.10;25.85;98358.03;4790375;29;20186;-90
2023/08/28 10:59:45;;;;;;;6.18;2.15;;;;;;;38.94;26.61;98351.00;4806215;29;20174;-89
2023/08/28 11:02:12;;;;;;;4.03;2.03;;;;;;;38.98;25.54;98352.88;4806054;29;20186;-89
2023/08/28 11:04:40;;;;;;;4.65;2.67;;;;;;;39.15;26.27;98347.03;4806350;29;20286;-90
2023/08/28 11:07:26;;;;;;;3.53;2.17;;;;;;;39.40;26.41;98348.78;4806139;29;20179;-90
2023/08/28 11:10:14;;;;;;;3.35;1.83;;;;;;;39.30;25.28;98345.03;4806240;29;20618;-89
2023/08/28 11:12:54;;;;;;;3.33;1.90;;;;;;;39.32;25.20;98342.00;4805059;29;20182;-89
2023/08/28 11:15:32;;;;;;;10.93;4.03;;;;;;;39.45;26.04;98338.59;4804985;29;20656;-89
2023/08/28 11:18:20;;;;;;;4.40;2.42;;;;;;;39.27;26.65;98328.31;4805684;29;20555;-88
2023/08/28 11:20:50;;;;;;;6.45;2.63;;;;;;;39.36;25.88;98342.25;4789996;29;20189;-89
2023/08/28 11:23:24;;;;;;;2.50;1.42;;;;;;;39.62;24.39;98341.78;4806124;29;20202;-89
2023/08/28 11:25:51;;;;;;;4.65;1.83;;;;;;;39.20;23.66;98333.31;4805749;29;20198;-90
2023/08/28 11:28:26;;;;;;;4.70;1.60;;;;;;;38.80;24.69;98328.84;4806231;29;20198;-90
2023/08/28 11:30:51;;;;;;;3.75;1.70;;;;;;;38.94;24.60;98323.59;4805863;29;20185;-90
2023/08/28 11:33:18;;;;;;;4.88;2.05;;;;;;;39.28;24.78;98327.22;4805692;29;20183;-89
2023/08/28 11:35:45;;;;;;;3.17;1.38;;;;;;;39.33;25.37;98326.34;4805439;29;20282;-89
2023/08/28 11:38:12;;;;;;;5.40;1.88;;;;;;;39.38;24.39;98315.34;4805667;29;20283;-89
2023/08/28 11:40:38;;;;;;;5.45;2.50;;;;;;;39.68;25.24;98310.44;4805592;29;20633;-89
2023/08/28 11:43:06;;;;;;;3.97;1.50;;;;;;;40.00;24.43;98303.53;4789588;29;20279;-89
2023/08/28 11:45:32;;;;;;;3.88;2.30;;;;;;;40.24;23.76;98298.91;4805478;29;20642;-89
2023/08/28 11:48:04;;;;;;;3.05;1.60;;;;;;;40.52;23.79;98305.47;4749864;29;1192384;-89
2023/08/28 11:50:30;;;;;;;4.32;1.85;;;;;;;40.71;24.17;98298.06;4790305;29;20182;-89
2023/08/28 11:52:58;;;;;;;4.82;1.65;;;;;;;40.45;22.95;98295.63;4806465;29;20182;-89
2023/08/28 11:55:23;;;;;;;3.92;1.65;;;;;;;40.29;24.02;98296.09;4806152;29;20343;-89
2023/08/28 11:57:51;;;;;;;3.40;1.63;;;;;;;40.31;22.59;98288.38;4806144;29;20689;-88
2023/08/28 12:00:17;;;;;;;2.67;1.50;;;;;;;40.07;23.07;98287.59;4806130;29;20273;-88
2023/08/28 12:02:48;;;;;;;3.92;1.65;;;;;;;40.40;22.91;98283.88;4806020;29;20339;-88
2023/08/28 12:05:18;;;;;;;3.35;1.40;;;;;;;40.58;21.90;98279.56;4806044;29;20186;-89
2023/08/28 12:07:46;;;;;;;8.57;2.05;;;;;;;40.03;22.66;98281.81;4806237;29;20179;-89
2023/08/28 12:10:16;;;;;;;3.35;1.73;;;;;;;40.34;22.80;98283.13;4804823;29;20190;-88
2023/08/28 12:12:42;;;;;;;9.88;4.40;;;;;;;40.61;22.58;98278.97;4806304;29;20607;-90
2023/08/28 12:15:10;;;;;;;3.33;2.05;;;;;;;40.75;22.25;98266.13;4806470;29;20274;-89
2023/08/28 12:17:38;;;;;;;2.97;1.48;;;;;;;40.75;22.68;98266.13;4804930;29;20210;-89
2023/08/28 12:20:11;;;;;;;3.90;2.03;;;;;;;40.91;23.18;98264.84;4804779;29;20190;-89
2023/08/28 12:22:46;;;;;;;7.15;2.00;;;;;;;40.82;22.21;98266.56;4791263;29;20230;-89
2023/08/28 12:25:13;;;;;;;3.42;1.63;;;;;;;40.61;22.25;98256.97;4806037;29;20651;-88
2023/08/28 12:27:39;;;;;;;2.78;1.60;;;;;;;40.89;22.91;98261.53;4805816;29;20237;-90
2023/08/28 12:30:07;;;;;;;3.00;1.75;;;;;;;41.01;22.07;98254.47;4805799;29;20657;-89
2023/08/28 12:32:34;;;;;;;5.80;2.80;;;;;;;40.93;22.46;98252.44;4806014;29;20706;-89
2023/08/28 12:35:13;;;;;;;5.18;1.80;;;;;;;41.14;22.81;98257.59;4805675;29;20182;-90
2023/08/28 12:37:40;;;;;;;3.65;1.85;;;;;;;41.37;21.85;98251.19;4805854;29;20198;-89
2023/08/28 12:40:10;;;;;;;3.22;1.63;;;;;;;41.37;20.82;98248.44;4805925;29;20186;-89